Time;durP1;ratioP1;P1;durP2;ratioP2;P2;SDS_P1;SDS_P2;PMS_P1;PMS_P2;Temp;Humidity;BMP_temperature;BMP_pressure;BME280_temperature;BME280_humidity;BME280_pressure;Samples;Min_cycle;Max_cycle;Signal;HPM_P1;HPM_P2
2021/01/23 00:01:18;;;;;;;53.60;31.93;;;;;;;;;;4398779;32;20637;-61
2021/01/23 00:03:44;;;;;;;50.90;30.13;;;;;;;;;;4386614;32;20257;-57
2021/01/23 00:06:09;;;;;;;43.23;25.40;;;;;;;;;;4399132;32;20320;-57
2021/01/23 00:08:35;;;;;;;45.23;24.10;;;;;;;;;;4399044;32;20370;-55
2021/01/23 00:11:00;;;;;;;43.20;25.23;;;;;;;;;;4399906;32;20245;-59
2021/01/23 00:13:26;;;;;;;38.70;23.27;;;;;;;;;;4398936;32;20536;-60
2021/01/23 00:15:51;;;;;;;45.27;24.57;;;;;;;;;;4377210;32;20237;-55
2021/01/23 00:18:17;;;;;;;38.90;21.83;;;;;;;;;;4398615;32;20375;-56
2021/01/23 00:20:42;;;;;;;46.00;25.40;;;;;;;;;;4396866;32;20329;-57
2021/01/23 00:23:07;;;;;;;44.77;25.53;;;;;;;;;;4397613;32;20320;-57
2021/01/23 00:25:34;;;;;;;43.60;27.10;;;;;;;;;;4393746;32;20274;-57
2021/01/23 00:28:00;;;;;;;49.00;28.60;;;;;;;;;;4396986;32;20251;-57
2021/01/23 00:30:25;;;;;;;53.47;31.93;;;;;;;;;;4398629;32;20411;-57
2021/01/23 00:32:51;;;;;;;50.50;27.40;;;;;;;;;;4383871;32;20252;-58
2021/01/23 00:35:16;;;;;;;59.63;31.00;;;;;;;;;;4398716;32;20348;-56
2021/01/23 00:37:43;;;;;;;60.50;31.90;;;;;;;;;;4395900;32;20400;-59
2021/01/23 00:40:08;;;;;;;52.87;29.33;;;;;;;;;;4398925;32;20348;-58
2021/01/23 00:42:34;;;;;;;46.33;23.20;;;;;;;;;;4398763;32;20206;-56
2021/01/23 00:44:59;;;;;;;51.53;24.83;;;;;;;;;;4400739;32;20693;-56
2021/01/23 00:47:25;;;;;;;43.17;23.73;;;;;;;;;;4398846;32;20277;-56
2021/01/23 00:49:50;;;;;;;45.77;27.50;;;;;;;;;;4400506;32;20711;-56
2021/01/23 00:52:16;;;;;;;68.90;32.77;;;;;;;;;;4399331;32;20218;-55
2021/01/23 00:54:41;;;;;;;34.47;20.03;;;;;;;;;;4384907;32;20745;-55
2021/01/23 00:57:07;;;;;;;34.23;18.53;;;;;;;;;;4399336;32;20318;-56
2021/01/23 00:59:32;;;;;;;23.67;11.10;;;;;;;;;;4399691;32;20355;-55
2021/01/23 01:01:58;;;;;;;17.23;10.83;;;;;;;;;;4398834;32;20662;-56
2021/01/23 01:04:23;;;;;;;28.50;15.33;;;;;;;;;;4398641;32;20304;-56
2021/01/23 01:06:49;;;;;;;22.27;14.63;;;;;;;;;;4399264;32;20304;-56
2021/01/23 01:09:14;;;;;;;13.63;9.17;;;;;;;;;;4399233;32;20821;-57
2021/01/23 01:11:40;;;;;;;35.23;18.00;;;;;;;;;;4384354;32;20217;-55
2021/01/23 01:14:05;;;;;;;39.67;20.10;;;;;;;;;;4399943;32;20367;-55
2021/01/23 01:16:31;;;;;;;41.10;19.77;;;;;;;;;;4398524;32;20324;-55
2021/01/23 01:18:56;;;;;;;28.93;17.20;;;;;;;;;;4399287;32;20567;-55
2021/01/23 01:21:22;;;;;;;35.33;18.90;;;;;;;;;;4399678;32;20277;-55
2021/01/23 01:23:47;;;;;;;35.63;18.23;;;;;;;;;;4397429;32;20277;-55
2021/01/23 01:26:13;;;;;;;29.93;17.50;;;;;;;;;;4371777;32;20500;-54
2021/01/23 01:28:38;;;;;;;33.40;17.53;;;;;;;;;;4397945;32;20630;-55
2021/01/23 01:31:04;;;;;;;37.80;20.70;;;;;;;;;;4386657;32;20734;-55
2021/01/23 01:33:30;;;;;;;31.73;16.40;;;;;;;;;;4397994;32;20201;-55
2021/01/23 01:35:55;;;;;;;26.37;14.83;;;;;;;;;;4398603;32;20205;-56
2021/01/23 01:38:21;;;;;;;10.87;6.87;;;;;;;;;;4399301;32;20213;-55
2021/01/23 01:40:46;;;;;;;10.13;5.60;;;;;;;;;;4398028;32;20292;-56
2021/01/23 01:43:11;;;;;;;18.37;11.20;;;;;;;;;;4397512;32;20420;-56
2021/01/23 01:45:37;;;;;;;35.07;18.40;;;;;;;;;;4383702;32;20399;-55
2021/01/23 01:48:03;;;;;;;41.97;20.53;;;;;;;;;;4398559;32;20455;-56
2021/01/23 01:50:29;;;;;;;41.53;22.97;;;;;;;;;;4398466;32;20324;-56
2021/01/23 01:52:54;;;;;;;37.27;18.93;;;;;;;;;;4396138;32;20213;-56
2021/01/23 01:55:30;;;;;;;43.73;22.13;;;;;;;;;;4397704;32;20345;-56
2021/01/23 01:57:55;;;;;;;40.03;23.77;;;;;;;;;;4396992;32;20334;-56
2021/01/23 02:00:21;;;;;;;44.70;22.53;;;;;;;;;;4396148;32;20273;-57
2021/01/23 02:03:13;;;;;;;50.30;27.93;;;;;;;;;;4398114;32;20365;-55
2021/01/23 02:05:48;;;;;;;58.63;29.37;;;;;;;;;;4399430;32;20218;-57
2021/01/23 02:08:24;;;;;;;92.70;47.00;;;;;;;;;;4382732;32;20249;-57
2021/01/23 02:11:11;;;;;;;87.43;38.03;;;;;;;;;;4395707;32;20244;-55
2021/01/23 02:13:44;;;;;;;49.23;25.17;;;;;;;;;;4384203;32;20277;-56
2021/01/23 02:16:13;;;;;;;64.17;34.87;;;;;;;;;;4397234;32;20666;-56
2021/01/23 02:18:43;;;;;;;59.83;28.07;;;;;;;;;;4396558;32;20209;-56
2021/01/23 02:21:44;;;;;;;59.77;31.97;;;;;;;;;;4396988;32;20624;-55
2021/01/23 02:24:09;;;;;;;71.67;37.67;;;;;;;;;;4398098;32;20209;-54
2021/01/23 02:26:44;;;;;;;94.60;52.50;;;;;;;;;;4397585;32;20637;-54
2021/01/23 02:29:21;;;;;;;89.67;47.77;;;;;;;;;;4397601;32;20205;-55
2021/01/23 02:32:06;;;;;;;89.50;49.83;;;;;;;;;;4396369;32;20348;-54
2021/01/23 02:34:33;;;;;;;74.13;43.53;;;;;;;;;;4395865;32;20259;-55
2021/01/23 02:37:00;;;;;;;83.67;44.33;;;;;;;;;;4397408;32;20304;-55
2021/01/23 02:39:27;;;;;;;79.63;42.00;;;;;;;;;;4398950;32;20609;-55
2021/01/23 02:41:53;;;;;;;66.07;38.37;;;;;;;;;;4383134;32;20225;-55
2021/01/23 02:44:19;;;;;;;41.90;26.77;;;;;;;;;;4398953;32;20328;-55
2021/01/23 02:46:45;;;;;;;33.13;18.83;;;;;;;;;;4395541;32;20619;-55
2021/01/23 02:49:11;;;;;;;29.60;18.90;;;;;;;;;;4380492;32;20367;-57
2021/01/23 02:51:41;;;;;;;43.03;23.83;;;;;;;;;;4396086;32;20229;-54
2021/01/23 02:54:13;;;;;;;58.37;31.80;;;;;;;;;;4400231;32;20241;-56
2021/01/23 02:56:41;;;;;;;39.83;23.83;;;;;;;;;;4385764;32;20226;-55
2021/01/23 02:59:07;;;;;;;47.13;27.93;;;;;;;;;;4386910;32;20288;-55
2021/01/23 03:01:39;;;;;;;54.33;27.23;;;;;;;;;;4400615;32;20846;-56
2021/01/23 03:04:07;;;;;;;47.63;24.97;;;;;;;;;;4401366;32;20306;-54
2021/01/23 03:06:32;;;;;;;29.90;16.57;;;;;;;;;;4399289;32;20594;-55
2021/01/23 03:08:59;;;;;;;32.43;18.83;;;;;;;;;;4401197;32;20276;-55
2021/01/23 03:11:25;;;;;;;35.00;17.83;;;;;;;;;;4400984;32;20240;-55
2021/01/23 03:13:50;;;;;;;20.17;10.90;;;;;;;;;;4383177;32;20382;-56
2021/01/23 03:16:15;;;;;;;20.47;11.70;;;;;;;;;;4384783;32;20639;-54
2021/01/23 03:18:41;;;;;;;32.73;17.00;;;;;;;;;;4399798;32;20250;-55
2021/01/23 03:21:06;;;;;;;12.80;7.00;;;;;;;;;;4401443;32;20716;-56
2021/01/23 03:23:32;;;;;;;5.97;4.43;;;;;;;;;;4399860;32;20217;-55
2021/01/23 03:25:57;;;;;;;5.27;3.73;;;;;;;;;;4384029;32;20319;-56
2021/01/23 03:28:23;;;;;;;5.20;2.87;;;;;;;;;;4400889;32;20231;-55
2021/01/23 03:30:48;;;;;;;6.30;3.37;;;;;;;;;;4400301;32;20288;-55
2021/01/23 03:33:14;;;;;;;16.60;8.57;;;;;;;;;;4400229;32;20232;-55
2021/01/23 03:35:39;;;;;;;17.80;9.40;;;;;;;;;;4399894;32;20276;-56
2021/01/23 03:38:06;;;;;;;18.97;8.90;;;;;;;;;;4400491;32;20293;-55
2021/01/23 03:40:31;;;;;;;15.23;9.13;;;;;;;;;;4386585;32;20298;-55
2021/01/23 03:42:57;;;;;;;19.27;10.43;;;;;;;;;;4399776;32;20356;-55
2021/01/23 03:45:22;;;;;;;22.43;12.73;;;;;;;;;;4398454;32;20344;-54
2021/01/23 03:47:48;;;;;;;20.70;12.20;;;;;;;;;;4399776;32;20244;-56
2021/01/23 03:50:14;;;;;;;17.83;10.47;;;;;;;;;;4385625;32;20439;-56
2021/01/23 03:52:39;;;;;;;36.83;16.90;;;;;;;;;;4398494;32;20534;-56
2021/01/23 03:55:06;;;;;;;70.47;41.10;;;;;;;;;;4398291;32;20380;-54
2021/01/23 03:57:32;;;;;;;26.40;16.07;;;;;;;;;;4399665;32;20291;-55
2021/01/23 03:59:57;;;;;;;25.80;14.77;;;;;;;;;;4399482;32;20292;-56
2021/01/23 04:02:23;;;;;;;28.97;14.03;;;;;;;;;;4399240;32;20659;-56
2021/01/23 04:04:48;;;;;;;22.27;14.03;;;;;;;;;;4398244;32;20272;-56
2021/01/23 04:07:13;;;;;;;24.10;13.87;;;;;;;;;;4399104;32;20573;-56
2021/01/23 04:09:39;;;;;;;21.20;12.50;;;;;;;;;;4383894;32;20746;-56
2021/01/23 04:12:05;;;;;;;17.83;9.10;;;;;;;;;;4398643;32;20340;-54
2021/01/23 04:14:31;;;;;;;20.47;11.07;;;;;;;;;;4384347;32;20316;-55
2021/01/23 04:16:56;;;;;;;21.47;10.67;;;;;;;;;;4398508;32;20255;-56
2021/01/23 04:19:22;;;;;;;57.50;29.70;;;;;;;;;;4398891;32;20285;-56
2021/01/23 04:21:47;;;;;;;35.67;20.60;;;;;;;;;;4397389;32;20300;-55
2021/01/23 04:24:13;;;;;;;29.73;18.03;;;;;;;;;;4384920;32;20365;-54
2021/01/23 04:26:41;;;;;;;35.50;20.10;;;;;;;;;;4397685;32;20286;-55
2021/01/23 04:29:07;;;;;;;44.47;23.00;;;;;;;;;;4398869;32;20291;-57
2021/01/23 04:31:36;;;;;;;27.43;15.43;;;;;;;;;;4382053;32;20813;-56
2021/01/23 04:34:02;;;;;;;22.10;12.37;;;;;;;;;;4399465;32;20218;-55
2021/01/23 04:36:28;;;;;;;21.53;12.90;;;;;;;;;;4399002;32;20351;-55
2021/01/23 04:38:53;;;;;;;21.20;10.90;;;;;;;;;;4400474;32;20296;-55
2021/01/23 04:41:19;;;;;;;4.07;3.13;;;;;;;;;;4399833;32;20274;-55
2021/01/23 04:43:45;;;;;;;7.03;3.30;;;;;;;;;;4400600;32;21580;-57
2021/01/23 04:46:12;;;;;;;5.10;2.70;;;;;;;;;;4398776;32;20315;-56
2021/01/23 04:48:37;;;;;;;5.33;3.40;;;;;;;;;;4383819;32;20569;-57
2021/01/23 04:51:03;;;;;;;7.07;4.07;;;;;;;;;;4397866;32;20578;-56
2021/01/23 04:53:28;;;;;;;9.70;4.90;;;;;;;;;;4399214;32;20217;-56
2021/01/23 04:55:54;;;;;;;8.27;3.13;;;;;;;;;;4399041;32;20284;-55
2021/01/23 04:58:20;;;;;;;9.10;3.50;;;;;;;;;;4399681;32;20289;-56
2021/01/23 05:00:46;;;;;;;10.30;4.63;;;;;;;;;;4398697;32;20352;-56
2021/01/23 05:03:11;;;;;;;12.70;6.00;;;;;;;;;;4399040;32;20284;-55
2021/01/23 05:05:37;;;;;;;7.50;4.97;;;;;;;;;;4399337;32;20344;-55
2021/01/23 05:08:13;;;;;;;7.33;3.83;;;;;;;;;;4398049;32;20269;-55
2021/01/23 05:10:39;;;;;;;6.43;3.97;;;;;;;;;;4399193;32;20213;-56
2021/01/23 05:13:13;;;;;;;5.57;2.70;;;;;;;;;;4381335;32;20412;-56
2021/01/23 05:15:42;;;;;;;6.37;2.73;;;;;;;;;;4383318;32;20678;-56
2021/01/23 05:18:09;;;;;;;5.37;2.97;;;;;;;;;;4393995;32;20758;-57
2021/01/23 05:20:40;;;;;;;10.43;7.20;;;;;;;;;;4397582;32;20312;-54
2021/01/23 05:23:22;;;;;;;22.40;13.77;;;;;;;;;;4396599;32;20217;-56
2021/01/23 05:25:49;;;;;;;20.80;12.23;;;;;;;;;;4396309;32;20380;-55
2021/01/23 05:28:31;;;;;;;19.27;12.60;;;;;;;;;;4397050;32;20213;-55
2021/01/23 05:30:57;;;;;;;19.90;12.57;;;;;;;;;;4382264;32;20355;-55
2021/01/23 05:33:24;;;;;;;20.57;13.00;;;;;;;;;;4396644;32;20277;-56
2021/01/23 05:35:59;;;;;;;21.47;13.27;;;;;;;;;;4381410;32;20220;-56
2021/01/23 05:38:31;;;;;;;44.77;24.37;;;;;;;;;;4397904;32;20240;-56
2021/01/23 05:41:17;;;;;;;32.77;20.70;;;;;;;;;;4398443;32;20190;-56
2021/01/23 05:43:46;;;;;;;34.50;20.10;;;;;;;;;;4378512;32;20421;-64
2021/01/23 05:46:15;;;;;;;39.20;21.60;;;;;;;;;;4382244;32;20256;-63
2021/01/23 05:48:43;;;;;;;33.30;19.13;;;;;;;;;;4380376;32;20229;-63
2021/01/23 05:51:08;;;;;;;34.87;21.17;;;;;;;;;;4398328;32;20380;-59
2021/01/23 05:53:34;;;;;;;30.57;18.27;;;;;;;;;;4383325;32;20296;-60
2021/01/23 05:56:00;;;;;;;36.53;18.23;;;;;;;;;;4398581;32;20866;-59
2021/01/23 05:58:30;;;;;;;25.87;15.80;;;;;;;;;;4397916;32;20216;-59
2021/01/23 06:00:58;;;;;;;32.90;18.50;;;;;;;;;;4398461;32;20201;-60
2021/01/23 06:03:51;;;;;;;20.50;13.00;;;;;;;;;;4398634;32;20613;-59
2021/01/23 06:06:16;;;;;;;29.67;16.67;;;;;;;;;;4394570;32;20237;-58
2021/01/23 06:08:52;;;;;;;35.17;17.73;;;;;;;;;;4396198;32;20409;-59
2021/01/23 06:11:18;;;;;;;38.07;20.10;;;;;;;;;;4382868;32;20318;-58
2021/01/23 06:13:48;;;;;;;32.00;17.40;;;;;;;;;;4397823;32;20233;-58
2021/01/23 06:16:32;;;;;;;36.87;18.33;;;;;;;;;;4399225;32;20225;-57
2021/01/23 06:19:26;;;;;;;27.07;16.77;;;;;;;;;;4398004;32;20261;-58
2021/01/23 06:21:52;;;;;;;15.63;8.73;;;;;;;;;;4396703;32;20236;-58
2021/01/23 06:24:41;;;;;;;53.10;23.67;;;;;;;;;;4397847;32;20348;-59
2021/01/23 06:27:07;;;;;;;26.27;15.50;;;;;;;;;;4392313;32;20249;-58
2021/01/23 06:29:35;;;;;;;27.80;15.17;;;;;;;;;;4398245;32;20392;-58
2021/01/23 06:32:13;;;;;;;49.73;28.70;;;;;;;;;;4397973;32;20297;-59
2021/01/23 06:34:48;;;;;;;34.37;20.43;;;;;;;;;;4398846;32;20760;-59
2021/01/23 06:37:52;;;;;;;19.00;12.57;;;;;;;;;;4396032;32;20626;-58
2021/01/23 06:40:23;;;;;;;32.57;19.07;;;;;;;;;;4360590;32;20342;-58
2021/01/23 06:42:51;;;;;;;22.10;13.43;;;;;;;;;;4396004;32;20261;-59
2021/01/23 06:45:37;;;;;;;31.17;16.83;;;;;;;;;;4399151;32;20205;-58
2021/01/23 06:48:03;;;;;;;16.23;10.47;;;;;;;;;;4398435;32;20484;-58
2021/01/23 06:50:34;;;;;;;18.80;10.70;;;;;;;;;;4398940;32;20273;-61
2021/01/23 06:53:01;;;;;;;24.40;13.57;;;;;;;;;;4396695;32;20363;-60
2021/01/23 06:55:50;;;;;;;28.13;14.07;;;;;;;;;;4399757;32;20329;-62
2021/01/23 06:58:25;;;;;;;26.97;11.20;;;;;;;;;;4397918;32;20324;-61
2021/01/23 07:00:54;;;;;;;27.20;13.53;;;;;;;;;;4382301;32;21180;-61
2021/01/23 07:03:19;;;;;;;29.53;15.97;;;;;;;;;;4397057;32;20304;-61
2021/01/23 07:05:56;;;;;;;30.07;16.50;;;;;;;;;;4398994;32;20319;-59
2021/01/23 07:08:27;;;;;;;22.30;13.97;;;;;;;;;;4397214;32;20619;-59
2021/01/23 07:11:03;;;;;;;24.70;14.50;;;;;;;;;;4398812;32;20582;-59
2021/01/23 07:13:28;;;;;;;33.27;16.33;;;;;;;;;;4397182;32;20368;-58
2021/01/23 07:15:53;;;;;;;35.77;19.50;;;;;;;;;;4399204;32;20304;-60
2021/01/23 07:18:19;;;;;;;28.60;19.03;;;;;;;;;;4396477;32;20418;-59
2021/01/23 07:20:44;;;;;;;44.80;29.50;;;;;;;;;;4398275;32;20209;-59
2021/01/23 07:23:12;;;;;;;37.37;22.03;;;;;;;;;;4397173;32;20237;-61
2021/01/23 07:25:38;;;;;;;90.23;48.23;;;;;;;;;;4398353;32;20681;-60
2021/01/23 07:28:04;;;;;;;33.97;19.13;;;;;;;;;;4397442;32;20357;-61
2021/01/23 07:30:29;;;;;;;36.07;19.17;;;;;;;;;;4397284;32;20371;-61
2021/01/23 07:32:55;;;;;;;28.73;17.10;;;;;;;;;;4396981;32;20336;-61
2021/01/23 07:35:20;;;;;;;29.63;17.60;;;;;;;;;;4398131;32;20690;-59
2021/01/23 07:37:51;;;;;;;26.03;15.50;;;;;;;;;;4383278;32;20359;-58
2021/01/23 07:40:25;;;;;;;40.30;21.93;;;;;;;;;;4399931;32;20274;-60
2021/01/23 07:42:52;;;;;;;55.13;27.50;;;;;;;;;;4398258;32;20284;-60
2021/01/23 07:45:19;;;;;;;44.37;28.23;;;;;;;;;;4397613;32;20323;-59
2021/01/23 07:48:01;;;;;;;27.93;13.83;;;;;;;;;;4398300;32;20321;-59
2021/01/23 07:50:40;;;;;;;13.27;8.60;;;;;;;;;;4399609;32;20205;-62
2021/01/23 07:53:15;;;;;;;18.97;10.50;;;;;;;;;;4399114;32;20287;-62
2021/01/23 07:55:40;;;;;;;11.50;7.10;;;;;;;;;;4385248;32;20697;-60
2021/01/23 07:58:09;;;;;;;20.00;12.23;;;;;;;;;;4401154;32;20210;-60
2021/01/23 08:00:35;;;;;;;31.73;20.30;;;;;;;;;;4401357;32;20229;-61
2021/01/23 08:03:01;;;;;;;16.43;11.00;;;;;;;;;;4399669;32;20316;-59
2021/01/23 08:05:42;;;;;;;17.17;10.37;;;;;;;;;;4400588;32;20315;-59
2021/01/23 08:08:07;;;;;;;18.00;9.93;;;;;;;;;;4380946;32;20391;-59
2021/01/23 08:10:36;;;;;;;9.93;6.17;;;;;;;;;;4397833;32;20237;-60
2021/01/23 08:13:04;;;;;;;20.87;10.43;;;;;;;;;;4398657;32;20253;-60
2021/01/23 08:15:34;;;;;;;18.87;13.00;;;;;;;;;;4394834;32;20276;-67
2021/01/23 08:18:00;;;;;;;26.10;15.50;;;;;;;;;;4396777;32;20354;-66
2021/01/23 08:20:37;;;;;;;26.57;17.33;;;;;;;;;;4396905;32;20706;-60
2021/01/23 08:23:09;;;;;;;19.43;12.83;;;;;;;;;;4397597;32;20359;-59
2021/01/23 08:25:55;;;;;;;27.50;17.10;;;;;;;;;;4399606;32;20221;-59
2021/01/23 08:28:33;;;;;;;35.47;18.60;;;;;;;;;;4399281;32;21334;-62
2021/01/23 08:31:20;;;;;;;26.73;15.83;;;;;;;;;;4401046;32;20376;-60
2021/01/23 08:33:54;;;;;;;27.77;15.77;;;;;;;;;;4397876;32;20210;-60
2021/01/23 08:36:28;;;;;;;14.83;9.13;;;;;;;;;;4384516;32;20364;-62
2021/01/23 08:39:04;;;;;;;13.93;7.83;;;;;;;;;;4400562;32;20270;-61
2021/01/23 08:41:30;;;;;;;13.97;6.73;;;;;;;;;;4399260;32;20383;-61
2021/01/23 08:43:56;;;;;;;9.33;5.10;;;;;;;;;;4385066;32;20323;-61
2021/01/23 08:46:21;;;;;;;14.80;6.43;;;;;;;;;;4399734;32;20222;-62
2021/01/23 08:48:48;;;;;;;14.33;8.40;;;;;;;;;;4399965;32;20205;-62
2021/01/23 08:51:14;;;;;;;7.80;4.73;;;;;;;;;;4398710;32;20226;-64
2021/01/23 08:53:41;;;;;;;14.70;8.07;;;;;;;;;;4399575;32;20960;-60
2021/01/23 08:56:06;;;;;;;26.20;13.00;;;;;;;;;;4400349;32;20271;-58
2021/01/23 08:58:32;;;;;;;12.97;9.20;;;;;;;;;;4382675;32;20216;-58
2021/01/23 09:00:57;;;;;;;11.10;5.93;;;;;;;;;;4399577;32;20336;-58
2021/01/23 09:03:23;;;;;;;8.77;5.43;;;;;;;;;;4396818;32;20363;-57
2021/01/23 09:05:48;;;;;;;20.03;9.33;;;;;;;;;;4384352;32;20308;-58
2021/01/23 09:08:14;;;;;;;16.93;6.93;;;;;;;;;;4384214;32;20222;-59
2021/01/23 09:10:39;;;;;;;15.90;5.00;;;;;;;;;;4385176;32;20443;-64
2021/01/23 09:13:06;;;;;;;23.23;10.47;;;;;;;;;;4399064;32;20221;-62
2021/01/23 09:15:32;;;;;;;16.50;7.60;;;;;;;;;;4383640;32;20273;-64
2021/01/23 09:17:57;;;;;;;21.80;10.90;;;;;;;;;;4399259;32;20866;-63
2021/01/23 09:20:22;;;;;;;28.30;15.70;;;;;;;;;;4398453;32;20339;-64
2021/01/23 09:22:48;;;;;;;24.17;11.53;;;;;;;;;;4397752;32;20210;-65
2021/01/23 09:25:13;;;;;;;24.83;11.53;;;;;;;;;;4383833;32;20366;-65
2021/01/23 09:27:39;;;;;;;23.30;12.33;;;;;;;;;;4397794;32;20513;-63
2021/01/23 09:30:05;;;;;;;23.20;11.57;;;;;;;;;;4399042;32;20734;-64
2021/01/23 09:32:31;;;;;;;24.20;9.80;;;;;;;;;;4396753;32;20245;-65
2021/01/23 09:34:56;;;;;;;20.43;9.97;;;;;;;;;;4397594;32;20338;-64
2021/01/23 09:37:26;;;;;;;24.57;10.90;;;;;;;;;;4397901;32;20340;-64
2021/01/23 09:39:52;;;;;;;20.30;7.97;;;;;;;;;;4395593;32;20291;-57
2021/01/23 09:42:18;;;;;;;8.63;5.33;;;;;;;;;;4380411;32;20399;-56
2021/01/23 09:44:44;;;;;;;11.23;4.67;;;;;;;;;;4398409;32;20315;-56
2021/01/23 09:47:12;;;;;;;6.97;4.97;;;;;;;;;;4399085;32;20248;-56
2021/01/23 09:49:38;;;;;;;10.07;4.27;;;;;;;;;;4398631;32;20599;-56
2021/01/23 09:52:04;;;;;;;13.30;5.30;;;;;;;;;;4396506;32;20489;-56
2021/01/23 09:54:29;;;;;;;28.27;14.90;;;;;;;;;;4396256;32;20292;-56
2021/01/23 09:56:54;;;;;;;35.37;19.60;;;;;;;;;;4384197;32;20347;-55
2021/01/23 09:59:20;;;;;;;21.07;11.40;;;;;;;;;;4398491;32;20265;-55
2021/01/23 10:01:45;;;;;;;14.67;7.30;;;;;;;;;;4398861;32;20710;-56
2021/01/23 10:04:11;;;;;;;13.37;7.77;;;;;;;;;;4398954;32;20272;-56
2021/01/23 10:06:36;;;;;;;11.70;5.73;;;;;;;;;;4398561;32;20308;-56
2021/01/23 10:09:02;;;;;;;14.73;7.47;;;;;;;;;;4398291;32;20624;-56
2021/01/23 10:11:27;;;;;;;14.30;7.67;;;;;;;;;;4391867;32;20801;-56
2021/01/23 10:13:53;;;;;;;54.27;31.60;;;;;;;;;;4398093;32;20775;-56
2021/01/23 10:16:18;;;;;;;116.87;44.00;;;;;;;;;;4394637;32;20690;-55
2021/01/23 10:18:44;;;;;;;19.83;8.87;;;;;;;;;;4397066;32;20280;-55
2021/01/23 10:21:09;;;;;;;10.53;5.20;;;;;;;;;;4396826;32;20226;-55
2021/01/23 10:23:35;;;;;;;8.00;3.30;;;;;;;;;;4392891;32;20285;-60
2021/01/23 10:26:00;;;;;;;11.67;4.37;;;;;;;;;;4395947;32;20291;-60
2021/01/23 10:28:27;;;;;;;5.00;3.40;;;;;;;;;;4391777;32;20746;-64
2021/01/23 10:30:52;;;;;;;15.40;9.47;;;;;;;;;;4380005;32;20305;-65
2021/01/23 10:33:18;;;;;;;36.90;18.83;;;;;;;;;;4397489;32;20373;-66
2021/01/23 10:35:45;;;;;;;40.17;21.43;;;;;;;;;;4382707;32;20326;-66
2021/01/23 10:38:10;;;;;;;49.70;26.07;;;;;;;;;;4394939;32;20285;-63
2021/01/23 10:40:36;;;;;;;41.40;19.27;;;;;;;;;;4395877;32;20423;-64
2021/01/23 10:43:01;;;;;;;38.43;16.07;;;;;;;;;;4397912;32;20217;-63
2021/01/23 10:45:26;;;;;;;13.50;7.33;;;;;;;;;;4382217;32;20652;-61
2021/01/23 10:47:52;;;;;;;42.80;18.43;;;;;;;;;;4396959;32;20267;-60
2021/01/23 10:50:18;;;;;;;22.00;10.40;;;;;;;;;;4396703;32;20335;-60
2021/01/23 10:52:43;;;;;;;26.97;14.63;;;;;;;;;;4396436;32;20316;-63
2021/01/23 10:55:09;;;;;;;25.50;14.60;;;;;;;;;;4395875;32;20236;-62
2021/01/23 10:57:34;;;;;;;40.80;20.40;;;;;;;;;;4396354;32;20324;-61
2021/01/23 11:00:00;;;;;;;38.13;17.80;;;;;;;;;;4399029;32;20293;-60
2021/01/23 11:02:26;;;;;;;16.40;6.40;;;;;;;;;;4396865;32;20274;-60
2021/01/23 11:04:51;;;;;;;38.67;18.37;;;;;;;;;;4397077;32;20233;-61
2021/01/23 11:07:16;;;;;;;21.27;11.40;;;;;;;;;;4397288;32;20229;-62
2021/01/23 11:09:42;;;;;;;11.07;5.30;;;;;;;;;;4397667;32;20418;-60
2021/01/23 11:12:08;;;;;;;21.13;10.90;;;;;;;;;;4397426;32;20308;-59
2021/01/23 11:14:34;;;;;;;14.07;7.17;;;;;;;;;;4399491;32;20817;-59
2021/01/23 11:17:01;;;;;;;25.67;13.37;;;;;;;;;;4400950;32;20342;-57
2021/01/23 11:19:27;;;;;;;15.93;6.57;;;;;;;;;;4399272;32;20301;-62
2021/01/23 11:21:52;;;;;;;18.83;13.20;;;;;;;;;;4394096;32;20305;-62
2021/01/23 11:24:19;;;;;;;40.53;32.27;;;;;;;;;;4383975;32;20757;-61
2021/01/23 11:26:45;;;;;;;21.23;8.60;;;;;;;;;;4395464;32;20259;-58
2021/01/23 11:29:10;;;;;;;26.33;22.77;;;;;;;;;;4395115;32;20758;-55
2021/01/23 11:31:36;;;;;;;15.80;3.40;;;;;;;;;;4399899;32;20260;-55
2021/01/23 11:34:01;;;;;;;13.80;4.30;;;;;;;;;;4395898;32;21354;-54
2021/01/23 11:36:27;;;;;;;10.10;3.30;;;;;;;;;;4399936;32;20437;-54
2021/01/23 11:38:52;;;;;;;7.73;4.47;;;;;;;;;;4398506;32;20269;-54
2021/01/23 11:41:18;;;;;;;13.60;5.20;;;;;;;;;;4398789;32;20229;-54
2021/01/23 11:43:44;;;;;;;11.57;5.57;;;;;;;;;;4394680;32;20225;-54
2021/01/23 11:46:09;;;;;;;8.27;6.00;;;;;;;;;;4385331;32;20392;-55
2021/01/23 11:48:34;;;;;;;10.97;3.93;;;;;;;;;;4385357;32;20718;-55
2021/01/23 11:51:00;;;;;;;5.53;3.40;;;;;;;;;;4380071;32;20887;-54
2021/01/23 11:53:26;;;;;;;9.67;4.20;;;;;;;;;;4399663;32;20225;-55
2021/01/23 11:55:51;;;;;;;9.23;3.37;;;;;;;;;;4400508;32;20562;-54
2021/01/23 11:58:17;;;;;;;4.90;3.30;;;;;;;;;;4378099;32;20419;-61
2021/01/23 12:00:43;;;;;;;5.17;2.63;;;;;;;;;;4380260;32;20328;-60
2021/01/23 12:03:08;;;;;;;6.37;2.50;;;;;;;;;;4397858;32;20689;-58
2021/01/23 12:05:33;;;;;;;10.43;7.57;;;;;;;;;;4398768;32;20341;-60
2021/01/23 12:08:00;;;;;;;5.63;2.07;;;;;;;;;;4400208;32;20234;-59
2021/01/23 12:10:26;;;;;;;7.27;2.93;;;;;;;;;;4383681;32;20288;-59
2021/01/23 12:12:52;;;;;;;20.77;12.40;;;;;;;;;;4399903;32;20267;-59
2021/01/23 12:15:18;;;;;;;14.87;7.60;;;;;;;;;;4399394;32;20722;-60
2021/01/23 12:17:44;;;;;;;10.33;4.83;;;;;;;;;;4384327;32;20230;-58
2021/01/23 12:20:10;;;;;;;46.30;24.27;;;;;;;;;;4385427;32;20485;-59
2021/01/23 12:22:40;;;;;;;10.97;5.57;;;;;;;;;;4401322;32;20250;-59
2021/01/23 12:25:10;;;;;;;10.07;4.07;;;;;;;;;;4399574;32;20344;-61
2021/01/23 12:27:36;;;;;;;22.90;8.43;;;;;;;;;;4396545;32;20670;-61
2021/01/23 12:30:07;;;;;;;11.03;3.97;;;;;;;;;;4399041;32;20664;-60
2021/01/23 12:32:32;;;;;;;8.37;4.10;;;;;;;;;;4385018;32;20244;-60
2021/01/23 12:34:58;;;;;;;7.37;2.47;;;;;;;;;;4394866;32;20351;-57
2021/01/23 12:37:23;;;;;;;16.67;5.77;;;;;;;;;;4395038;32;20304;-58
2021/01/23 12:39:49;;;;;;;8.47;3.60;;;;;;;;;;4397216;32;20354;-56
2021/01/23 12:42:14;;;;;;;6.77;2.03;;;;;;;;;;4394239;32;20332;-56
2021/01/23 12:44:40;;;;;;;18.77;10.40;;;;;;;;;;4399367;32;20209;-57
2021/01/23 12:47:05;;;;;;;6.60;4.43;;;;;;;;;;4398955;32;20302;-56
2021/01/23 12:49:31;;;;;;;9.27;3.90;;;;;;;;;;4398928;32;20249;-63
2021/01/23 12:51:56;;;;;;;2.90;1.90;;;;;;;;;;4382728;32;20380;-64
2021/01/23 12:54:22;;;;;;;3.07;1.90;;;;;;;;;;4382051;32;20244;-63
2021/01/23 12:56:50;;;;;;;6.30;2.37;;;;;;;;;;4397342;32;20487;-64
2021/01/23 12:59:16;;;;;;;8.40;3.60;;;;;;;;;;4400438;32;20388;-62
2021/01/23 13:01:41;;;;;;;13.07;5.53;;;;;;;;;;4398474;32;20221;-61
2021/01/23 13:04:07;;;;;;;4.13;2.53;;;;;;;;;;4399263;32;20831;-63
2021/01/23 13:06:36;;;;;;;4.00;2.40;;;;;;;;;;4400238;32;20576;-64
2021/01/23 13:09:02;;;;;;;6.63;2.97;;;;;;;;;;4399400;32;20631;-61
2021/01/23 13:11:28;;;;;;;5.27;2.03;;;;;;;;;;4383597;32;20738;-63
2021/01/23 13:13:53;;;;;;;17.57;9.27;;;;;;;;;;4398823;32;20331;-62
2021/01/23 13:16:19;;;;;;;13.67;4.07;;;;;;;;;;4398363;32;20292;-63
2021/01/23 13:18:47;;;;;;;49.43;30.17;;;;;;;;;;4399644;32;21495;-62
2021/01/23 13:21:15;;;;;;;8.90;5.70;;;;;;;;;;4397334;32;20586;-59
2021/01/23 13:23:41;;;;;;;101.93;46.23;;;;;;;;;;4396489;32;20589;-63
2021/01/23 13:26:16;;;;;;;36.70;18.40;;;;;;;;;;4381608;32;20253;-64
2021/01/23 13:28:42;;;;;;;20.57;10.33;;;;;;;;;;4397127;32;20241;-64
2021/01/23 13:31:07;;;;;;;14.87;5.63;;;;;;;;;;4397793;32;20318;-64
2021/01/23 13:33:33;;;;;;;104.57;44.00;;;;;;;;;;4397212;32;20581;-65
2021/01/23 13:35:58;;;;;;;22.87;10.90;;;;;;;;;;4397685;32;20245;-65
2021/01/23 13:38:24;;;;;;;8.57;4.97;;;;;;;;;;4397681;32;20309;-65
2021/01/23 13:40:49;;;;;;;14.83;6.27;;;;;;;;;;4379182;32;20320;-55
2021/01/23 13:43:15;;;;;;;8.47;4.63;;;;;;;;;;4396954;32;20317;-55
2021/01/23 13:45:41;;;;;;;60.93;37.57;;;;;;;;;;4396504;32;20334;-56
2021/01/23 13:48:07;;;;;;;25.20;15.97;;;;;;;;;;4398226;32;20416;-57
2021/01/23 13:50:32;;;;;;;26.30;16.07;;;;;;;;;;4398497;32;20340;-55
2021/01/23 13:52:58;;;;;;;8.80;5.80;;;;;;;;;;4397220;32;20311;-55
2021/01/23 13:55:23;;;;;;;20.57;7.83;;;;;;;;;;4398930;32;20296;-55
2021/01/23 13:57:49;;;;;;;9.27;6.50;;;;;;;;;;4383847;32;20428;-54
2021/01/23 14:00:16;;;;;;;30.33;12.87;;;;;;;;;;4398842;32;20351;-54
2021/01/23 14:02:42;;;;;;;11.03;4.60;;;;;;;;;;4399219;32;20466;-55
2021/01/23 14:05:08;;;;;;;36.30;19.50;;;;;;;;;;4399305;32;20337;-55
2021/01/23 14:07:33;;;;;;;71.00;37.33;;;;;;;;;;4399884;32;20368;-55
2021/01/23 14:09:59;;;;;;;32.87;16.40;;;;;;;;;;4399881;32;20280;-56
2021/01/23 14:12:24;;;;;;;182.43;97.93;;;;;;;;;;4385494;32;20600;-55
2021/01/23 14:14:51;;;;;;;52.27;27.10;;;;;;;;;;4399516;32;20232;-55
2021/01/23 14:17:16;;;;;;;77.80;42.53;;;;;;;;;;4399364;32;20352;-55
2021/01/23 14:19:42;;;;;;;11.70;6.50;;;;;;;;;;4399604;32;20391;-55
2021/01/23 14:22:08;;;;;;;7.70;3.87;;;;;;;;;;4399695;32;20710;-56
2021/01/23 14:24:33;;;;;;;59.77;31.87;;;;;;;;;;4399410;32;20235;-56
2021/01/23 14:26:58;;;;;;;38.20;19.90;;;;;;;;;;4398784;32;20244;-55